Pagina principală
Imagini din satelit Prognoze pe 10 zileClimăVremea marină Cicloane Fulgere AeroporturiÎntrebări Buletin informativ Despre
Vremea : Europa Africa America de Nord America de Sud Asia Australia-Oceania Altele
Limbi Pagina de contact

Bucureşti-Băneasa, România

Aeroportul Internațional București Băneasa - Aurel Vlaicu

Latitudine: 44-30N, longitudine: 026-08E, elevație: 90 m


METAR: LRBS 280500Z 31002KT 8000 NSC 07/06 Q1013 NOSIG
TAF: LRBS 272300Z 2800/2824 07006KT 5000 BR NSC TEMPO 2801/2806 1500 BR BKN005 BECMG 2806/2808 9999 NSW

Ora: 07:15 (05:15 UTC)

Observații meteo curente

Raportul a fost făcut în urmă cu 15 de minute, la 05:00 UTC
Vânt 2 kt de la Nord-vest
Temperatură 7°C
Umiditate 93%
Presiune 1013 hPa
Vizibilitate: 8000 m

Schimbare unități

Prognoză

Raportul a fost făcut în urmă cu 6 ore și 15 de minute, la 23:00 UTC
Prognoză valabilă de la 28 ora 00 UTC la 28 ora 24 UTC
Vânt 6 kt de la Est/Nord-est
Vizibilitate: 5000 m
aer cețos
Temporar
de la 28 ora 01 UTC la 28 ora 06 UTC
Vizibilitate: 1500 m
Nori fragmentați la o înălțime de 500 picior
aer cețos
Devenind
de la 28 ora 06 UTC la 28 ora 08 UTC
Vizibilitate de 10 km sau mai mult
Informațiile de pe acest site sunt prezentate sub rezerva declinării responsabilității
Vremea : Europa Africa America de Nord America de Sud Asia Australia-Oceania Altele
Imagini din satelit Prognoze pe 10 zileClimăVremea marină Cicloane Fulgere AeroporturiÎntrebări Limbi Pagina de contact Buletin informativ Despre